Detall de PIREP

Printer-friendly versionPDF version

[2014/03/23 15:29:00]
Flight IATA:CT0003
Pilot Number:012
Company ICAO:CAT
Aircraft Type:F28/A
PAX:85
Departing Airport: LIEA
Destination Airport: LICJ
Alternate Airport:LIRA
Online: VATSIM
Route:SODIO M732 CAR M871 KAPIL
Flight Level:F190
No Slew and time accel
No pause
Crash detect
Detect pilot in Cockpit between each 30 and 45 minutes
15:29 Zero fuel Weight: 55095 Lbs, Fuel Weight: 10048 Lbs
15:29 VATSIM:LIEA 231520Z 28012KT 9999 SCT030 12/03 Q1011
15:29 VATSIM:LICJ 231520Z 22020KT 9999 FEW035 SCT050 18/11 Q1011
15:30 VOICE CATALONIAN
15:36 Parking Brakes off
15:40 Take-off
15:40 Take off Weight: 64753 Lbs
15:40 Wind: 278º @ 019 Knots Heading: 209º
15:40 POS N40º 37´ 37´´ E008º 17´ 17´´
15:40 Gear Up: 151 Knots
15:40 Flaps:1 at 151 Knots
15:41 Flaps:0 at 157 Knots
15:51 TOC
15:51 Fuel Weight: 8145 Lb
15:55 Wind:249º@066 Knots Heading: 156º Ground Speed: 401 Knots Altitude 18891 ft
16:10 Wind:250º@061 Knots Heading: 115º Ground Speed: 464 Knots Altitude 18904 ft
16:19 TOD
16:19 Fuel Weight: 5801 Lb
16:25 Wind:254º@027 Knots Heading: 105º Ground Speed: 305 Knots Altitude 7181 ft
16:27 Flaps:1 at 218 Knots
16:30 Flaps:2 at 206 Knots
16:30 Gear Down: 198 Knots
16:31 Flaps:3 at 183 Knots
16:32 Flaps:4 at 175 Knots
16:32 Flaps:5 at 169 Knots
16:35 TouchDown:Rate -133 ft/min Speed: 111 Knots
16:35 VATSIM:LICJ 231550Z 21018KT 9999 FEW035 SCT050 17/11 Q1012
16:35 Land
16:35 Wind:217º@019 Knots
16:35 Heading: 251º
16:35 Flight Duration: 00:55
16:35 Landing Weight: 60142 Lbs
16:35 POS N38º 10´ 47´´ E013º 06´ 10´´
16:38 Parking brakes on
16:38 Block to Block Duration: 01:02
16:38 Final Fuel: 4940 Lbls
16:38 Spent Fuel: 5108 Lbls
16:38 Flight Length: 321 NM
16:38 TOD Land Length: 69 NM

Exportar CSV

Powered by Drupal - Modified by Danger4k